UAL2238 KEWR-KLAX
Flight info
| Callsign | UAL2238 |
|---|---|
| Flight time | N/A |
| Altitude | 40000 |
| Route | NEWEL J60 DANNR RAV J64 FWA EDENS WELKY Q90 DNERO ANJLL4 |
| Aircraft | B772/H-SDE2E3FGHIJ5LORVWXY/LB1D1 |
Departure
| Time | N/A |
|---|---|
| Airport | Newark Liberty International Airport (KEWR) |
Arrival
| Time | 2026-04-23 22:41 |
|---|---|
| Airport | Los Angeles International Airport (KLAX) |
| Time | Latitude | Longitude | Altitude | Speed | Heading |
|---|---|---|---|---|---|
| 2026-04-23 20:37 | 38.75405 | -102.61945 | 39645 ft | 440 kts | 255° |
| 2026-04-23 20:37 | 38.74574 | -102.65728 | 39638 ft | 439 kts | 255° |
| 2026-04-23 20:38 | 38.72922 | -102.73226 | 39642 ft | 439 kts | 255° |
| 2026-04-23 20:38 | 38.71256 | -102.80763 | 39653 ft | 438 kts | 255° |
| 2026-04-23 20:39 | 38.69596 | -102.88252 | 39638 ft | 437 kts | 255° |
| 2026-04-23 20:39 | 38.67924 | -102.95768 | 39638 ft | 437 kts | 255° |
| 2026-04-23 20:40 | 38.66267 | -103.03199 | 39634 ft | 436 kts | 255° |
| 2026-04-23 20:40 | 38.64604 | -103.10626 | 39634 ft | 436 kts | 255° |
| 2026-04-23 20:41 | 38.62928 | -103.18078 | 39642 ft | 435 kts | 255° |
| 2026-04-23 20:41 | 38.61250 | -103.25518 | 39633 ft | 434 kts | 255° |
| 2026-04-23 20:42 | 38.59582 | -103.32892 | 39641 ft | 432 kts | 255° |
| 2026-04-23 20:42 | 38.57907 | -103.40277 | 39632 ft | 432 kts | 255° |
| 2026-04-23 20:43 | 38.56237 | -103.47616 | 39635 ft | 428 kts | 255° |
| 2026-04-23 20:43 | 38.54583 | -103.54859 | 39634 ft | 425 kts | 255° |
| 2026-04-23 20:44 | 38.52924 | -103.62103 | 39627 ft | 422 kts | 255° |
| 2026-04-23 20:44 | 38.51287 | -103.69234 | 39638 ft | 421 kts | 255° |
| 2026-04-23 20:45 | 38.49632 | -103.76415 | 39635 ft | 420 kts | 255° |
| 2026-04-23 20:45 | 38.47975 | -103.83586 | 39637 ft | 421 kts | 255° |
| 2026-04-23 20:46 | 38.46319 | -103.90730 | 39629 ft | 423 kts | 254° |
| 2026-04-23 20:46 | 38.44640 | -103.97949 | 39643 ft | 424 kts | 254° |
| 2026-04-23 20:47 | 38.42959 | -104.05155 | 39638 ft | 426 kts | 254° |
| 2026-04-23 20:47 | 38.41263 | -104.12401 | 39662 ft | 427 kts | 254° |
| 2026-04-23 20:48 | 38.39556 | -104.19673 | 39696 ft | 428 kts | 254° |
| 2026-04-23 20:48 | 38.37852 | -104.26913 | 39730 ft | 429 kts | 254° |
| 2026-04-23 20:49 | 38.36126 | -104.34217 | 39765 ft | 430 kts | 254° |
| 2026-04-23 20:49 | 38.34396 | -104.41521 | 39795 ft | 431 kts | 254° |
| 2026-04-23 20:50 | 38.32667 | -104.48798 | 39796 ft | 431 kts | 254° |
| 2026-04-23 20:50 | 38.30919 | -104.56130 | 39793 ft | 432 kts | 254° |
| 2026-04-23 20:51 | 38.29166 | -104.63458 | 39787 ft | 432 kts | 254° |
| 2026-04-23 20:51 | 38.27418 | -104.70746 | 39756 ft | 432 kts | 254° |
| 2026-04-23 20:52 | 38.25656 | -104.78069 | 39725 ft | 432 kts | 254° |
| 2026-04-23 20:52 | 38.23890 | -104.85388 | 39693 ft | 432 kts | 254° |
| 2026-04-23 20:53 | 38.22130 | -104.92657 | 39668 ft | 432 kts | 253° |
| 2026-04-23 20:53 | 38.20357 | -104.99961 | 39674 ft | 432 kts | 253° |
| 2026-04-23 20:54 | 38.18584 | -105.07239 | 39672 ft | 433 kts | 253° |
| 2026-04-23 20:54 | 38.16796 | -105.14560 | 39699 ft | 434 kts | 253° |
| 2026-04-23 20:55 | 38.14990 | -105.21919 | 39707 ft | 436 kts | 253° |
| 2026-04-23 20:55 | 38.13197 | -105.29232 | 39711 ft | 435 kts | 253° |
| 2026-04-23 20:56 | 38.11385 | -105.36582 | 39736 ft | 435 kts | 253° |
| 2026-04-23 20:56 | 38.09566 | -105.43934 | 39704 ft | 436 kts | 254° |
| 2026-04-23 20:57 | 38.07761 | -105.51209 | 39734 ft | 433 kts | 254° |
| 2026-04-23 20:57 | 38.05956 | -105.58472 | 39752 ft | 430 kts | 254° |
| 2026-04-23 20:58 | 38.04153 | -105.65697 | 39741 ft | 430 kts | 254° |
| 2026-04-23 20:58 | 38.02347 | -105.72935 | 39736 ft | 430 kts | 254° |
| 2026-04-23 20:59 | 38.00510 | -105.80155 | 39739 ft | 430 kts | 253° |
| 2026-04-23 20:59 | 37.98456 | -105.87314 | 39752 ft | 431 kts | 251° |
| 2026-04-23 21:00 | 37.96355 | -105.94397 | 39751 ft | 431 kts | 251° |
| 2026-04-23 21:00 | 37.94259 | -106.01524 | 39759 ft | 431 kts | 252° |
| 2026-04-23 21:01 | 37.92188 | -106.08613 | 39807 ft | 431 kts | 252° |
| 2026-04-23 21:01 | 37.90101 | -106.15764 | 39835 ft | 432 kts | 252° |
| 2026-04-23 21:02 | 37.88011 | -106.22905 | 39886 ft | 432 kts | 252° |
| 2026-04-23 21:02 | 37.85929 | -106.30001 | 39918 ft | 432 kts | 252° |
| 2026-04-23 21:03 | 37.83834 | -106.37121 | 39932 ft | 432 kts | 252° |
| 2026-04-23 21:03 | 37.81731 | -106.44248 | 39950 ft | 431 kts | 252° |
| 2026-04-23 21:04 | 37.79647 | -106.51292 | 39921 ft | 430 kts | 252° |
| 2026-04-23 21:04 | 37.77547 | -106.58376 | 39903 ft | 429 kts | 252° |
| 2026-04-23 21:05 | 37.75449 | -106.65433 | 39857 ft | 428 kts | 252° |
| 2026-04-23 21:05 | 37.73348 | -106.72480 | 39861 ft | 428 kts | 252° |
| 2026-04-23 21:06 | 37.71250 | -106.79503 | 39826 ft | 430 kts | 252° |
| 2026-04-23 21:06 | 37.69138 | -106.86576 | 39806 ft | 429 kts | 252° |
| 2026-04-23 21:07 | 37.67014 | -106.93634 | 39831 ft | 429 kts | 252° |
| 2026-04-23 21:07 | 37.64894 | -107.00664 | 39817 ft | 431 kts | 252° |
| 2026-04-23 21:08 | 37.62763 | -107.07712 | 39837 ft | 430 kts | 252° |
| 2026-04-23 21:08 | 37.60642 | -107.14725 | 39845 ft | 428 kts | 252° |
| 2026-04-23 21:09 | 37.58521 | -107.21714 | 39854 ft | 425 kts | 252° |
| 2026-04-23 21:09 | 37.56761 | -107.27501 | 39869 ft | 423 kts | 252° |
| 2026-04-23 21:10 | 37.54646 | -107.34442 | 39857 ft | 423 kts | 252° |
| 2026-04-23 21:10 | 37.52527 | -107.41377 | 39828 ft | 424 kts | 252° |
| 2026-04-23 21:11 | 37.50420 | -107.48255 | 39852 ft | 423 kts | 252° |
| 2026-04-23 21:11 | 37.48290 | -107.55198 | 39855 ft | 425 kts | 252° |
| 2026-04-23 21:12 | 37.46161 | -107.62116 | 39858 ft | 425 kts | 252° |
| 2026-04-23 21:12 | 37.44014 | -107.69067 | 39854 ft | 426 kts | 252° |
| 2026-04-23 21:13 | 37.41866 | -107.76011 | 39856 ft | 425 kts | 252° |
| 2026-04-23 21:13 | 37.39717 | -107.82935 | 39869 ft | 424 kts | 252° |
| 2026-04-23 21:14 | 37.37584 | -107.89798 | 39894 ft | 424 kts | 252° |
| 2026-04-23 21:14 | 37.35433 | -107.96690 | 39874 ft | 423 kts | 252° |
| 2026-04-23 21:15 | 37.33284 | -108.03578 | 39907 ft | 421 kts | 252° |
| 2026-04-23 21:15 | 37.31155 | -108.10377 | 39904 ft | 421 kts | 251° |
| 2026-04-23 21:16 | 37.28998 | -108.17246 | 39914 ft | 421 kts | 252° |
| 2026-04-23 21:16 | 37.26857 | -108.24055 | 39938 ft | 421 kts | 252° |
| 2026-04-23 21:17 | 37.24698 | -108.30900 | 39919 ft | 422 kts | 252° |
| 2026-04-23 21:17 | 37.22533 | -108.37742 | 39914 ft | 422 kts | 252° |
| 2026-04-23 21:18 | 37.20363 | -108.44591 | 39910 ft | 422 kts | 251° |
| 2026-04-23 21:18 | 37.18203 | -108.51390 | 39901 ft | 421 kts | 251° |
| 2026-04-23 21:19 | 37.16029 | -108.58216 | 39892 ft | 420 kts | 252° |
| 2026-04-23 21:19 | 37.13857 | -108.65025 | 39899 ft | 420 kts | 251° |
| 2026-04-23 21:20 | 37.11691 | -108.71794 | 39896 ft | 421 kts | 251° |
| 2026-04-23 21:20 | 37.09501 | -108.78624 | 39888 ft | 421 kts | 251° |
| 2026-04-23 21:21 | 37.07312 | -108.85438 | 39905 ft | 421 kts | 251° |
| 2026-04-23 21:21 | 37.05124 | -108.92219 | 39889 ft | 422 kts | 251° |
| 2026-04-23 21:22 | 37.02920 | -108.99030 | 39903 ft | 422 kts | 251° |
| 2026-04-23 21:22 | 37.00726 | -109.05801 | 39885 ft | 422 kts | 251° |
| 2026-04-23 21:23 | 36.98516 | -109.12603 | 39900 ft | 421 kts | 251° |
| 2026-04-23 21:23 | 36.96303 | -109.19404 | 39884 ft | 421 kts | 251° |
| 2026-04-23 21:24 | 36.94099 | -109.26159 | 39881 ft | 421 kts | 251° |
| 2026-04-23 21:24 | 36.91878 | -109.32953 | 39899 ft | 421 kts | 251° |
| 2026-04-23 21:25 | 36.89651 | -109.39746 | 39908 ft | 420 kts | 251° |
| 2026-04-23 21:25 | 36.87442 | -109.46471 | 39875 ft | 420 kts | 251° |
| 2026-04-23 21:26 | 36.85252 | -109.53115 | 39888 ft | 408 kts | 251° |
| 2026-04-23 21:26 | 36.83098 | -109.59640 | 39886 ft | 405 kts | 251° |
| 2026-04-23 21:27 | 36.80961 | -109.66106 | 39894 ft | 404 kts | 251° |
| 2026-04-23 21:27 | 36.78815 | -109.72583 | 39882 ft | 403 kts | 251° |
| 2026-04-23 21:28 | 36.76666 | -109.79053 | 39877 ft | 403 kts | 251° |
| 2026-04-23 21:28 | 36.74521 | -109.85500 | 39874 ft | 404 kts | 251° |
| 2026-04-23 21:29 | 36.72352 | -109.92001 | 39881 ft | 406 kts | 251° |
| 2026-04-23 21:29 | 36.70175 | -109.98514 | 39884 ft | 409 kts | 251° |
| 2026-04-23 21:30 | 36.67986 | -110.05047 | 39884 ft | 410 kts | 251° |
| 2026-04-23 21:30 | 36.65774 | -110.11631 | 39893 ft | 411 kts | 251° |
| 2026-04-23 21:31 | 36.63566 | -110.18194 | 39878 ft | 412 kts | 250° |
| 2026-04-23 21:31 | 36.61361 | -110.24730 | 39896 ft | 411 kts | 250° |
| 2026-04-23 21:32 | 36.59142 | -110.31303 | 39895 ft | 411 kts | 250° |
| 2026-04-23 21:32 | 36.56918 | -110.37859 | 39897 ft | 411 kts | 250° |
| 2026-04-23 21:33 | 36.54708 | -110.44364 | 39898 ft | 410 kts | 250° |
| 2026-04-23 21:33 | 36.52485 | -110.50891 | 39894 ft | 409 kts | 250° |
| 2026-04-23 21:34 | 36.50259 | -110.57418 | 39902 ft | 409 kts | 250° |
| 2026-04-23 21:34 | 36.48032 | -110.63936 | 39892 ft | 410 kts | 250° |
| 2026-04-23 21:35 | 36.45810 | -110.70425 | 39899 ft | 410 kts | 250° |
| 2026-04-23 21:35 | 36.43574 | -110.76940 | 39898 ft | 410 kts | 250° |
| 2026-04-23 21:36 | 36.40213 | -110.86705 | 39890 ft | 410 kts | 250° |
| 2026-04-23 21:37 | 36.37980 | -110.93177 | 39895 ft | 409 kts | 250° |
| 2026-04-23 21:37 | 36.35732 | -110.99677 | 39887 ft | 409 kts | 250° |
| 2026-04-23 21:38 | 36.33486 | -111.06159 | 39894 ft | 409 kts | 250° |
| 2026-04-23 21:38 | 36.31241 | -111.12623 | 39890 ft | 410 kts | 250° |
| 2026-04-23 21:39 | 36.28978 | -111.19125 | 39887 ft | 410 kts | 250° |
| 2026-04-23 21:39 | 36.26714 | -111.25617 | 39889 ft | 410 kts | 250° |
| 2026-04-23 21:40 | 36.24461 | -111.32062 | 39874 ft | 410 kts | 250° |
| 2026-04-23 21:40 | 36.22187 | -111.38557 | 39836 ft | 410 kts | 250° |
| 2026-04-23 21:41 | 36.19913 | -111.45034 | 39859 ft | 410 kts | 249° |
| 2026-04-23 21:41 | 36.17632 | -111.51522 | 39870 ft | 411 kts | 249° |
| 2026-04-23 21:42 | 36.15352 | -111.57992 | 39875 ft | 412 kts | 249° |
| 2026-04-23 21:42 | 36.13049 | -111.64514 | 39873 ft | 413 kts | 249° |
| 2026-04-23 21:43 | 36.10741 | -111.71029 | 39885 ft | 413 kts | 249° |
| 2026-04-23 21:43 | 36.08447 | -111.77508 | 39898 ft | 413 kts | 249° |
| 2026-04-23 21:44 | 36.06163 | -111.84039 | 39941 ft | 412 kts | 250° |
| 2026-04-23 21:44 | 36.04073 | -111.90600 | 40005 ft | 412 kts | 251° |
| 2026-04-23 21:45 | 36.02010 | -111.97188 | 40062 ft | 409 kts | 251° |
| 2026-04-23 21:45 | 35.99925 | -112.03750 | 40097 ft | 411 kts | 251° |
| 2026-04-23 21:46 | 35.97821 | -112.10311 | 40098 ft | 412 kts | 251° |
| 2026-04-23 21:46 | 35.95700 | -112.16906 | 40089 ft | 412 kts | 251° |
| 2026-04-23 21:47 | 35.93591 | -112.23450 | 40093 ft | 412 kts | 251° |
| 2026-04-23 21:47 | 35.91469 | -112.30019 | 40070 ft | 412 kts | 251° |
| 2026-04-23 21:48 | 35.89339 | -112.36600 | 40034 ft | 412 kts | 251° |
| 2026-04-23 21:48 | 35.87216 | -112.43144 | 40002 ft | 412 kts | 251° |
| 2026-04-23 21:49 | 35.85079 | -112.49716 | 39923 ft | 412 kts | 251° |
| 2026-04-23 21:49 | 35.82954 | -112.56237 | 39927 ft | 413 kts | 251° |
| 2026-04-23 21:50 | 35.80801 | -112.62828 | 39920 ft | 413 kts | 251° |
| 2026-04-23 21:50 | 35.78666 | -112.69352 | 39920 ft | 413 kts | 250° |
| 2026-04-23 21:51 | 35.76512 | -112.75920 | 39914 ft | 414 kts | 250° |
| 2026-04-23 21:51 | 35.74346 | -112.82508 | 39914 ft | 414 kts | 250° |
| 2026-04-23 21:52 | 35.72185 | -112.89066 | 39915 ft | 414 kts | 250° |
| 2026-04-23 21:52 | 35.70016 | -112.95637 | 39916 ft | 414 kts | 250° |
| 2026-04-23 21:53 | 35.67856 | -113.02166 | 39918 ft | 414 kts | 250° |
| 2026-04-23 21:53 | 35.65679 | -113.08731 | 39887 ft | 414 kts | 250° |
| 2026-04-23 21:54 | 35.63500 | -113.15289 | 39914 ft | 415 kts | 250° |
| 2026-04-23 21:54 | 35.61304 | -113.21885 | 39916 ft | 417 kts | 250° |
| 2026-04-23 21:55 | 35.59096 | -113.28490 | 39907 ft | 418 kts | 250° |
| 2026-04-23 21:55 | 35.56870 | -113.35123 | 39910 ft | 418 kts | 250° |
| 2026-04-23 21:56 | 35.54664 | -113.41684 | 39901 ft | 418 kts | 250° |
| 2026-04-23 21:56 | 35.52432 | -113.48313 | 39895 ft | 419 kts | 250° |
| 2026-04-23 21:57 | 35.50211 | -113.54898 | 39894 ft | 419 kts | 250° |
| 2026-04-23 21:57 | 35.47985 | -113.61480 | 39902 ft | 419 kts | 250° |
| 2026-04-23 21:58 | 35.45746 | -113.68089 | 39922 ft | 419 kts | 250° |
| 2026-04-23 21:58 | 35.43883 | -113.73577 | 39949 ft | 419 kts | 250° |
| 2026-04-23 21:59 | 35.41637 | -113.80179 | 39960 ft | 419 kts | 250° |
| 2026-04-23 21:59 | 35.39388 | -113.86776 | 39988 ft | 419 kts | 250° |
| 2026-04-23 22:00 | 35.36018 | -113.96635 | 40000 ft | 419 kts | 250° |
| 2026-04-23 22:00 | 35.33766 | -114.03206 | 40001 ft | 419 kts | 250° |
| 2026-04-23 22:01 | 35.31504 | -114.09793 | 39979 ft | 419 kts | 249° |
| 2026-04-23 22:01 | 35.29234 | -114.16388 | 39970 ft | 420 kts | 249° |
| 2026-04-23 22:02 | 35.26977 | -114.22929 | 39953 ft | 420 kts | 249° |
| 2026-04-23 22:02 | 35.24693 | -114.29538 | 39938 ft | 421 kts | 249° |
| 2026-04-23 22:03 | 35.22413 | -114.36121 | 39916 ft | 420 kts | 249° |
| 2026-04-23 22:03 | 35.20124 | -114.42714 | 39920 ft | 421 kts | 249° |
| 2026-04-23 22:04 | 35.17840 | -114.49282 | 39924 ft | 421 kts | 249° |
| 2026-04-23 22:04 | 35.15556 | -114.55838 | 39926 ft | 421 kts | 249° |
| 2026-04-23 22:05 | 35.13252 | -114.62435 | 39925 ft | 420 kts | 249° |
| 2026-04-23 22:05 | 35.10969 | -114.69006 | 39933 ft | 419 kts | 249° |
| 2026-04-23 22:06 | 35.08696 | -114.75568 | 39928 ft | 419 kts | 249° |
| 2026-04-23 22:06 | 35.06433 | -114.82081 | 39912 ft | 420 kts | 249° |
| 2026-04-23 22:07 | 35.04143 | -114.88656 | 39925 ft | 420 kts | 249° |
| 2026-04-23 22:07 | 35.01783 | -114.95156 | 39932 ft | 422 kts | 247° |
| 2026-04-23 22:08 | 34.99256 | -115.01640 | 39916 ft | 422 kts | 246° |
| 2026-04-23 22:08 | 34.96716 | -115.08135 | 39935 ft | 424 kts | 246° |
| 2026-04-23 22:09 | 34.94205 | -115.14596 | 39963 ft | 425 kts | 247° |
| 2026-04-23 22:09 | 34.91675 | -115.21123 | 39962 ft | 426 kts | 247° |
| 2026-04-23 22:10 | 34.89121 | -115.27703 | 39974 ft | 427 kts | 247° |
| 2026-04-23 22:10 | 34.86582 | -115.34232 | 39970 ft | 427 kts | 246° |
| 2026-04-23 22:11 | 34.84057 | -115.40713 | 39971 ft | 426 kts | 246° |
| 2026-04-23 22:11 | 34.81507 | -115.47244 | 39959 ft | 426 kts | 246° |
| 2026-04-23 22:12 | 34.78956 | -115.53765 | 39967 ft | 426 kts | 246° |
| 2026-04-23 22:12 | 34.76424 | -115.60223 | 39956 ft | 425 kts | 246° |
| 2026-04-23 22:13 | 34.73874 | -115.66707 | 39978 ft | 425 kts | 246° |
| 2026-04-23 22:13 | 34.71323 | -115.73200 | 39984 ft | 425 kts | 246° |
| 2026-04-23 22:14 | 34.68767 | -115.79684 | 39987 ft | 425 kts | 246° |
| 2026-04-23 22:14 | 34.66203 | -115.86171 | 39986 ft | 425 kts | 246° |
| 2026-04-23 22:15 | 34.63638 | -115.92649 | 39999 ft | 425 kts | 246° |
| 2026-04-23 22:15 | 34.61088 | -115.99079 | 39991 ft | 425 kts | 246° |
| 2026-04-23 22:16 | 34.58522 | -116.05535 | 39990 ft | 425 kts | 246° |
| 2026-04-23 22:16 | 34.55950 | -116.11996 | 39992 ft | 424 kts | 246° |
| 2026-04-23 22:17 | 34.53372 | -116.18457 | 39990 ft | 424 kts | 246° |
| 2026-04-23 22:17 | 34.50818 | -116.24848 | 39977 ft | 423 kts | 246° |
| 2026-04-23 22:18 | 34.48278 | -116.31187 | 39627 ft | 414 kts | 246° |
| 2026-04-23 22:18 | 34.47019 | -116.34324 | 39107 ft | 411 kts | 246° |
| 2026-04-23 22:18 | 34.45763 | -116.37454 | 38417 ft | 412 kts | 246° |
| 2026-04-23 22:19 | 34.44509 | -116.40578 | 37620 ft | 414 kts | 246° |
| 2026-04-23 22:19 | 34.43247 | -116.43717 | 36852 ft | 415 kts | 246° |
| 2026-04-23 22:19 | 34.41986 | -116.46850 | 36100 ft | 416 kts | 246° |
| 2026-04-23 22:19 | 34.40707 | -116.50027 | 35281 ft | 420 kts | 246° |
| 2026-04-23 22:20 | 34.39433 | -116.53188 | 34438 ft | 425 kts | 246° |
| 2026-04-23 22:20 | 34.38127 | -116.56425 | 33449 ft | 430 kts | 246° |
| 2026-04-23 22:20 | 34.36810 | -116.59687 | 32408 ft | 435 kts | 246° |
| 2026-04-23 22:20 | 34.35462 | -116.63020 | 31372 ft | 440 kts | 246° |
| 2026-04-23 22:21 | 34.34106 | -116.66370 | 30499 ft | 442 kts | 246° |
| 2026-04-23 22:21 | 34.32773 | -116.69655 | 29701 ft | 440 kts | 246° |
| 2026-04-23 22:21 | 34.31420 | -116.72987 | 28793 ft | 440 kts | 246° |
| 2026-04-23 22:21 | 34.30073 | -116.76302 | 27973 ft | 438 kts | 246° |
| 2026-04-23 22:22 | 34.28730 | -116.79605 | 27148 ft | 435 kts | 246° |
| 2026-04-23 22:22 | 34.27394 | -116.82887 | 26353 ft | 433 kts | 246° |
| 2026-04-23 22:22 | 34.26067 | -116.86146 | 25575 ft | 430 kts | 246° |
| 2026-04-23 22:22 | 34.24746 | -116.89391 | 24809 ft | 428 kts | 246° |
| 2026-04-23 22:23 | 34.23447 | -116.92577 | 24053 ft | 426 kts | 246° |
| 2026-04-23 22:23 | 34.22138 | -116.95780 | 23212 ft | 416 kts | 246° |
| 2026-04-23 22:23 | 34.20918 | -116.98817 | 22403 ft | 389 kts | 249° |
| 2026-04-23 22:23 | 34.19991 | -117.01850 | 21702 ft | 387 kts | 255° |
| 2026-04-23 22:24 | 34.19207 | -117.04972 | 20993 ft | 385 kts | 256° |
| 2026-04-23 22:24 | 34.18444 | -117.08064 | 20344 ft | 385 kts | 255° |
| 2026-04-23 22:24 | 34.17638 | -117.11160 | 19657 ft | 385 kts | 254° |
| 2026-04-23 22:24 | 34.16820 | -117.14200 | 18973 ft | 385 kts | 254° |
| 2026-04-23 22:25 | 34.15967 | -117.17316 | 18290 ft | 386 kts | 253° |
| 2026-04-23 22:25 | 34.15128 | -117.20358 | 17545 ft | 386 kts | 253° |
| 2026-04-23 22:25 | 34.14280 | -117.23432 | 16939 ft | 384 kts | 253° |
| 2026-04-23 22:25 | 34.13434 | -117.26494 | 16594 ft | 380 kts | 253° |
| 2026-04-23 22:26 | 34.12603 | -117.29510 | 16396 ft | 374 kts | 253° |
| 2026-04-23 22:26 | 34.11787 | -117.32469 | 16200 ft | 370 kts | 253° |
| 2026-04-23 22:26 | 34.10984 | -117.35376 | 15913 ft | 368 kts | 253° |
| 2026-04-23 22:26 | 34.10219 | -117.38269 | 15356 ft | 352 kts | 255° |
| 2026-04-23 22:27 | 34.09517 | -117.41083 | 14298 ft | 345 kts | 255° |
| 2026-04-23 22:27 | 34.08844 | -117.43798 | 13612 ft | 329 kts | 255° |
| 2026-04-23 22:27 | 34.08198 | -117.46366 | 12970 ft | 314 kts | 255° |
| 2026-04-23 22:27 | 34.07591 | -117.48757 | 12882 ft | 282 kts | 255° |
| 2026-04-23 22:28 | 34.07068 | -117.50961 | 12570 ft | 268 kts | 258° |
| 2026-04-23 22:28 | 34.06679 | -117.53166 | 12226 ft | 277 kts | 260° |
| 2026-04-23 22:28 | 34.06298 | -117.55529 | 11828 ft | 299 kts | 260° |
| 2026-04-23 22:28 | 34.05893 | -117.58054 | 11376 ft | 310 kts | 260° |
| 2026-04-23 22:29 | 34.05476 | -117.60623 | 10909 ft | 309 kts | 260° |
| 2026-04-23 22:29 | 34.05066 | -117.63092 | 10444 ft | 290 kts | 259° |
| 2026-04-23 22:29 | 34.04687 | -117.65359 | 10291 ft | 272 kts | 259° |
| 2026-04-23 22:29 | 34.04314 | -117.67575 | 9973 ft | 262 kts | 259° |
| 2026-04-23 22:30 | 34.03958 | -117.69687 | 9329 ft | 262 kts | 259° |
| 2026-04-23 22:30 | 34.03594 | -117.71841 | 9004 ft | 261 kts | 259° |
| 2026-04-23 22:30 | 34.03235 | -117.73955 | 8715 ft | 248 kts | 260° |
| 2026-04-23 22:30 | 34.02898 | -117.75935 | 8566 ft | 234 kts | 259° |
| 2026-04-23 22:31 | 34.02573 | -117.77843 | 8550 ft | 230 kts | 259° |
| 2026-04-23 22:31 | 34.02252 | -117.79730 | 8563 ft | 233 kts | 259° |
| 2026-04-23 22:31 | 34.01917 | -117.81704 | 8271 ft | 251 kts | 259° |
| 2026-04-23 22:31 | 34.01563 | -117.83784 | 7933 ft | 254 kts | 260° |
| 2026-04-23 22:32 | 34.01206 | -117.85869 | 7604 ft | 253 kts | 259° |
| 2026-04-23 22:32 | 34.00849 | -117.87955 | 7277 ft | 254 kts | 259° |
| 2026-04-23 22:32 | 34.00492 | -117.90036 | 6942 ft | 250 kts | 259° |
| 2026-04-23 22:32 | 34.00147 | -117.92039 | 6618 ft | 237 kts | 259° |
| 2026-04-23 22:33 | 33.99821 | -117.93935 | 6314 ft | 228 kts | 259° |
| 2026-04-23 22:33 | 33.99498 | -117.95812 | 6027 ft | 229 kts | 259° |
| 2026-04-23 22:33 | 33.99172 | -117.97699 | 5754 ft | 234 kts | 259° |
| 2026-04-23 22:33 | 33.98843 | -117.99611 | 5499 ft | 232 kts | 259° |
| 2026-04-23 22:34 | 33.98514 | -118.01530 | 5167 ft | 232 kts | 259° |
| 2026-04-23 22:34 | 33.98189 | -118.03402 | 4868 ft | 228 kts | 259° |
| 2026-04-23 22:34 | 33.97875 | -118.05227 | 4564 ft | 218 kts | 258° |
| 2026-04-23 22:34 | 33.97573 | -118.06979 | 4285 ft | 207 kts | 258° |
| 2026-04-23 22:35 | 33.97287 | -118.08628 | 4063 ft | 196 kts | 259° |
| 2026-04-23 22:35 | 33.97012 | -118.10218 | 3932 ft | 194 kts | 259° |
| 2026-04-23 22:35 | 33.96697 | -118.11800 | 3822 ft | 194 kts | 256° |
| 2026-04-23 22:35 | 33.96389 | -118.13362 | 3730 ft | 189 kts | 259° |
| 2026-04-23 22:36 | 33.96166 | -118.14905 | 3643 ft | 186 kts | 262° |
| 2026-04-23 22:36 | 33.95990 | -118.16435 | 3488 ft | 188 kts | 263° |
| 2026-04-23 22:36 | 33.95825 | -118.17981 | 3281 ft | 182 kts | 263° |
| 2026-04-23 22:36 | 33.95672 | -118.19459 | 3108 ft | 174 kts | 263° |
| 2026-04-23 22:37 | 33.95522 | -118.20924 | 2926 ft | 180 kts | 262° |
| 2026-04-23 22:37 | 33.95370 | -118.22408 | 2690 ft | 176 kts | 262° |
| 2026-04-23 22:37 | 33.95225 | -118.23827 | 2458 ft | 167 kts | 259° |
| 2026-04-23 22:37 | 33.95086 | -118.25161 | 2260 ft | 159 kts | 260° |
| 2026-04-23 22:38 | 33.94953 | -118.26469 | 2069 ft | 150 kts | 261° |
| 2026-04-23 22:38 | 33.94834 | -118.27626 | 1886 ft | 130 kts | 258° |
| 2026-04-23 22:38 | 33.94726 | -118.28643 | 1713 ft | 120 kts | 258° |
| 2026-04-23 22:38 | 33.94618 | -118.29703 | 1551 ft | 132 kts | 262° |
| 2026-04-23 22:39 | 33.94507 | -118.30796 | 1360 ft | 131 kts | 261° |
| 2026-04-23 22:39 | 33.94394 | -118.31883 | 1169 ft | 130 kts | 261° |
| 2026-04-23 22:39 | 33.94291 | -118.32914 | 999 ft | 119 kts | 261° |
| 2026-04-23 22:39 | 33.94189 | -118.33899 | 862 ft | 120 kts | 261° |
| 2026-04-23 22:40 | 33.94071 | -118.34959 | 706 ft | 130 kts | 262° |
| 2026-04-23 22:40 | 33.93965 | -118.35987 | 508 ft | 118 kts | 263° |
| 2026-04-23 22:40 | 33.93773 | -118.37960 | 212 ft | 116 kts | 264° |
| 2026-04-23 22:41 | 33.93672 | -118.38909 | 113 ft | 113 kts | 264° |
| 2026-04-23 22:41 | 33.93587 | -118.39748 | 99 ft | 81 kts | 262° |
| 2026-04-23 22:41 | 33.93541 | -118.40210 | 100 ft | 45 kts | 263° |
| 2026-04-23 22:41 | 33.93543 | -118.40468 | 102 ft | 21 kts | 284° |
| 2026-04-23 22:42 | 33.93569 | -118.40561 | 103 ft | 0 kts | 291° |
| 2026-04-23 22:42 | 33.93569 | -118.40562 | 103 ft | 0 kts | 291° |
| 2026-04-23 22:43 | 33.93569 | -118.40564 | 103 ft | 0 kts | 291° |
| 2026-04-23 22:43 | 33.93570 | -118.40566 | 103 ft | 0 kts | 291° |
| 2026-04-23 22:43 | 33.93576 | -118.40586 | 102 ft | 7 kts | 290° |
| 2026-04-23 22:43 | 33.93580 | -118.40596 | 102 ft | 0 kts | 290° |
| 2026-04-23 22:44 | 33.93580 | -118.40597 | 101 ft | 0 kts | 290° |
| 2026-04-23 22:44 | 33.93580 | -118.40598 | 101 ft | 0 kts | 290° |
| 2026-04-23 22:44 | 33.93586 | -118.40618 | 100 ft | 11 kts | 289° |
| 2026-04-23 22:44 | 33.93595 | -118.40754 | 101 ft | 10 kts | 267° |
| 2026-04-23 22:45 | 33.93595 | -118.40767 | 101 ft | 0 kts | 267° |
| 2026-04-23 22:45 | 33.93595 | -118.40797 | 101 ft | 0 kts | 274° |
| 2026-04-23 22:45 | 33.93606 | -118.40839 | 100 ft | 0 kts | 294° |
| 2026-04-23 22:47 | 33.93650 | -118.40889 | 101 ft | 17 kts | 339° |
| 2026-04-23 22:47 | 33.93758 | -118.40910 | 99 ft | 14 kts | 352° |
| 2026-04-23 22:47 | 33.93854 | -118.40912 | 99 ft | 14 kts | 27° |
| 2026-04-23 22:48 | 33.93884 | -118.40802 | 100 ft | 14 kts | 86° |
| 2026-04-23 22:48 | 33.93893 | -118.40683 | 98 ft | 14 kts | 83° |
| 2026-04-23 22:48 | 33.93904 | -118.40568 | 99 ft | 14 kts | 83° |
| 2026-04-23 22:48 | 33.93916 | -118.40453 | 98 ft | 14 kts | 82° |
| 2026-04-23 22:49 | 33.93929 | -118.40338 | 98 ft | 14 kts | 82° |
| 2026-04-23 22:49 | 33.93941 | -118.40224 | 101 ft | 14 kts | 84° |
| 2026-04-23 22:49 | 33.93951 | -118.40108 | 99 ft | 14 kts | 83° |
| 2026-04-23 22:49 | 33.93962 | -118.40002 | 101 ft | 12 kts | 83° |
| 2026-04-23 22:50 | 33.93975 | -118.39916 | 98 ft | 6 kts | 59° |
| 2026-04-23 22:50 | 33.94016 | -118.39904 | 99 ft | 4 kts | 358° |
| 2026-04-23 22:50 | 33.94027 | -118.39905 | 100 ft | 1 kts | 356° |
| 2026-04-23 22:50 | 33.94030 | -118.39905 | 99 ft | 0 kts | 355° |